LGKO Airport Information

Runway Information
Runway 14 Length 7841 ft width 148 ft
Elevation 412 ft Threshold 0 ft Heading 148
Runway 32 Length 7841 ft Width 148 ft
Elevation 373 ft Threshold 0 ft Heading 328
Airport Frequencies
Type A/G Name IPPOKRATIS Frequency 563.7 MHZ
Type APP Name APP Frequency 119.95 MHZ
Type ATIS Name ATIS Frequency 126.95 MHZ
Type TWR Name IPPOKRATIS Frequency 121.05 MHZ
Airport Navaids
Type VOR-DME Name Kos Frequency 109000 KHZ
Type NDB Name Kos Frequency 311 KHZ
Airport Weather Information & NOTAM
ADDS - METARS form results

(0332 UTC 18 October 2021)
Data provider http://aviationweather.gov/metar/data/
 
METAR text: LGKO 180320Z 33007KT 9999 FEW020 17/14 Q1017
Conditions at: LGKO (KOS AIRPORT , GR) observed 0320 UTC 18 October 2021
Temperature: 17.0°C (63°F)
Dewpoint: 14.0°C (57°F) [RH = 82%]
Pressure (altimeter): 30.03 inches Hg (1017.0 mb)
Winds: from the NNW (330 degrees) at 8 MPH (7 knots; 3.6 m/s)
Visibility: 6 or more miles (10+ km)
Ceiling: at least 12,000 feet AGL
Clouds: few clouds at 2000 feet AGL
Weather: no significant weather observed at this time

METAR text: LGKO 180250Z 33006KT 9999 FEW020 17/14 Q1017
Conditions at: LGKO (KOS AIRPORT , GR) observed 0250 UTC 18 October 2021
Temperature: 17.0°C (63°F)
Dewpoint: 14.0°C (57°F) [RH = 82%]
Pressure (altimeter): 30.03 inches Hg (1017.0 mb)
Winds: from the NNW (330 degrees) at 7 MPH (6 knots; 3.1 m/s)
Visibility: 6 or more miles (10+ km)
Ceiling: at least 12,000 feet AGL
Clouds: few clouds at 2000 feet AGL
Weather: no significant weather observed at this time

Forecast for: LGKO (KOS AIRPORT , GR)
Text: TAF LGKO 172300Z 1800/1824 33012KT 9999 FEW020
Forecast period: 0000 UTC 18 October 2021 to 0000 UTC 19 October 2021
Forecast type: FROM: standard forecast or significant change
Winds: from the NNW (330 degrees) at 14 MPH (12 knots; 6.2 m/s)
Visibility: 6 or more miles (10+ km)
Ceiling: at least 12,000 feet AGL
Clouds: few clouds at 2000 feet AGL
Weather: no significant weather forecast for this period
Text: TEMPO 1812/1824 33012G22KT
Forecast period: 1200 UTC 18 October 2021 to 0000 UTC 19 October 2021
Forecast type: TEMPORARY: The following changes expected for less than half the time period
Winds: from the NNW (330 degrees) at 14 MPH (12 knots; 6.2 m/s)
gusting to 25 MPH (22 knots; 11.3 m/s)
Visibility: missing
Ceiling: unknown
Clouds: missing
Weather: no significant weather forecast for this period